📊 Raw Sensor Data
Showing records 36526 to 36550 of 84,898 total
| ID | Distance (ft) | Battery V | Battery A | Int Temp (°F) | Int Humid (%) | Ext Temp (°F) | Solar V | RSSI | SNR | Time Stamp |
|---|---|---|---|---|---|---|---|---|---|---|
| 48385 | 15.1 | 3.85 | -5 | 60 | 45 | 61 | 0.00 | -69 | 8 | 08/06/2025 12:45 AM |
| 48384 | 15.1 | 3.85 | -5 | 60 | 45 | 62 | 0.00 | -69 | 8 | 08/06/2025 12:30 AM |
| 48383 | 15.1 | 3.85 | -5 | 61 | 45 | 62 | 0.00 | -70 | 8 | 08/06/2025 12:15 AM |
| 48382 | 15.1 | 3.88 | -5 | 61 | 45 | 62 | 0.00 | -68 | 8 | 08/06/2025 12:00 AM |
| 48381 | 15.1 | 3.87 | -5 | 61 | 46 | 62 | 0.10 | -69 | 7 | 08/05/2025 11:45 PM |
| 48380 | 15.1 | 3.85 | -5 | 62 | 46 | 62 | 0.00 | -70 | 7 | 08/05/2025 11:30 PM |
| 48379 | 15.1 | 3.85 | -5 | 62 | 46 | 63 | 0.10 | -68 | 7 | 08/05/2025 11:15 PM |
| 48378 | 15.1 | 3.85 | -5 | 63 | 46 | 63 | 0.00 | -68 | 8 | 08/05/2025 11:00 PM |
| 48377 | 15.1 | 3.85 | -5 | 63 | 47 | 63 | 0.00 | -69 | 8 | 08/05/2025 10:45 PM |
| 48376 | 15.1 | 3.85 | -5 | 64 | 47 | 64 | 0.00 | -70 | 8 | 08/05/2025 10:30 PM |
| 48375 | 15.1 | 3.86 | -5 | 65 | 48 | 65 | 0.00 | -69 | 8 | 08/05/2025 10:15 PM |
| 48374 | 15.1 | 3.86 | -5 | 65 | 48 | 66 | 0.00 | -69 | 7 | 08/05/2025 10:00 PM |
| 48373 | 15.1 | 3.86 | -5 | 65 | 49 | 65 | 0.00 | -69 | 8 | 08/05/2025 09:45 PM |
| 48372 | 15.1 | 3.94 | -5 | 66 | 50 | 67 | 0.00 | -70 | 8 | 08/05/2025 09:30 PM |
| 48371 | 15.1 | 3.94 | -5 | 68 | 52 | 67 | 0.00 | -69 | 8 | 08/05/2025 09:15 PM |
| 48370 | 15.1 | 3.85 | -5 | 69 | 53 | 69 | 0.00 | -70 | 8 | 08/05/2025 09:00 PM |
| 48369 | 15.1 | 3.86 | -5 | 71 | 55 | 70 | 0.00 | -70 | 8 | 08/05/2025 08:45 PM |
| 48368 | 15.1 | 3.86 | -5 | 73 | 56 | 72 | 0.00 | -69 | 8 | 08/05/2025 08:30 PM |
| 48367 | 15.2 | 3.84 | -9 | 77 | 58 | 73 | 1.80 | -69 | 7 | 08/05/2025 08:15 PM |
| 48366 | 15.2 | 3.85 | -5 | 83 | 57 | 77 | 4.50 | -70 | 8 | 08/05/2025 08:00 PM |
| 48365 | 15.3 | 3.97 | 0 | 88 | 55 | 82 | 4.60 | -70 | 8 | 08/05/2025 07:45 PM |
| 48364 | 15.3 | 3.98 | 5 | 92 | 54 | 85 | 4.60 | -69 | 8 | 08/05/2025 07:30 PM |
| 48363 | 15.4 | 4.03 | 0 | 99 | 52 | 90 | 4.50 | -70 | 8 | 08/05/2025 07:00 PM |
| 48362 | 15.4 | 3.94 | 0 | 102 | 51 | 92 | 5.10 | -71 | 8 | 08/05/2025 06:30 PM |
| 48361 | 15.4 | 3.94 | 0 | 103 | 50 | 93 | 5.10 | -71 | 8 | 08/05/2025 06:15 PM |